createdAt,value
2022-10-29T00:00:44.464Z,101723.41
2022-10-29T00:01:51.110Z,101726.91
2022-10-29T00:02:52.752Z,101724.22
2022-10-29T00:03:55.406Z,101726.09
2022-10-29T00:04:56.965Z,101729.59
2022-10-29T00:06:01.725Z,101725.09
2022-10-29T00:07:03.288Z,101723.25
2022-10-29T00:08:05.988Z,101719.72
2022-10-29T00:09:07.769Z,101727.75
2022-10-29T00:10:10.796Z,101727.63
2022-10-29T00:11:14.898Z,101724.09
2022-10-29T00:12:18.729Z,101733.00
2022-10-29T00:13:20.317Z,101729.47
2022-10-29T00:14:22.798Z,101729.47
2022-10-29T00:15:24.683Z,101729.47
2022-10-29T00:16:28.957Z,101734.84
2022-10-29T00:17:30.475Z,101734.84
2022-10-29T00:18:33.011Z,101736.69
2022-10-29T00:19:34.566Z,101742.91
2022-10-29T00:20:37.071Z,101743.88
2022-10-29T00:21:40.331Z,101737.66
2022-10-29T00:22:42.830Z,101735.81
2022-10-29T00:23:44.728Z,101740.34
2022-10-29T00:24:47.207Z,101741.19
2022-10-29T00:25:48.725Z,101742.91
2022-10-29T00:26:51.240Z,101737.53
2022-10-29T00:27:55.715Z,101738.38
2022-10-29T00:28:58.450Z,101730.44
2022-10-29T00:30:00.027Z,101733.31
2022-10-29T00:31:06.271Z,101737.53
2022-10-29T00:32:09.859Z,101741.19
2022-10-29T00:33:12.905Z,101731.47
2022-10-29T00:34:14.458Z,101732.44
2022-10-29T00:35:17.103Z,101733.31
2022-10-29T00:36:22.009Z,101733.31
2022-10-29T00:37:24.479Z,101732.44
2022-10-29T00:38:27.068Z,101725.38
2022-10-29T00:39:29.767Z,101733.44
2022-10-29T00:40:35.551Z,101737.81
2022-10-29T00:41:38.054Z,101730.75
2022-10-29T00:42:39.558Z,101736.13
2022-10-29T00:43:48.753Z,101725.38
2022-10-29T00:44:51.188Z,101729.91
2022-10-29T00:45:57.772Z,101736.13
2022-10-29T00:47:04.634Z,101731.59
2022-10-29T00:48:07.341Z,101735.28
2022-10-29T00:49:09.956Z,101738.13
2022-10-29T00:50:15.416Z,101735.44
2022-10-29T00:51:17.964Z,101722.13
2022-10-29T00:52:23.147Z,101720.31
2022-10-29T00:53:28.442Z,101725.69
2022-10-29T00:54:32.913Z,101721.47
2022-10-29T00:55:35.424Z,101725.97
2022-10-29T00:56:40.571Z,101722.44
2022-10-29T00:57:49.944Z,101718.91
2022-10-29T00:58:53.154Z,101717.22
2022-10-29T00:59:56.412Z,101715.66
2022-10-29T01:00:59.224Z,101717.53
2022-10-29T01:02:01.927Z,101720.34
2022-10-29T01:03:03.759Z,101718.66
2022-10-29T01:04:07.218Z,101714.41
2022-10-29T01:05:10.236Z,101713.56
2022-10-29T01:06:12.902Z,101711.06
2022-10-29T01:07:14.504Z,101714.72
2022-10-29T01:08:17.560Z,101711.34
2022-10-29T01:09:19.098Z,101709.66
2022-10-29T01:10:32.833Z,101711.66
2022-10-29T01:11:44.166Z,101715.31
2022-10-29T01:14:27.975Z,101709.66
2022-10-29T01:15:41.570Z,101715.31
2022-10-29T01:16:49.924Z,101716.47
2022-10-29T01:18:05.973Z,101715.75
2022-10-29T01:19:15.358Z,101712.38
2022-10-29T01:20:42.203Z,101715.06
2022-10-29T01:21:45.978Z,101708.97
2022-10-29T01:22:59.654Z,101711.66
2022-10-29T01:24:27.808Z,101702.91
2022-10-29T01:25:51.093Z,101698.53
2022-10-29T01:27:29.304Z,101704.91
2022-10-29T01:28:42.584Z,101704.19
2022-10-29T01:30:01.489Z,101703.50
2022-10-29T01:31:19.603Z,101703.78
2022-10-29T01:32:30.955Z,101702.09
2022-10-29T01:33:39.630Z,101701.38
2022-10-29T01:34:45.958Z,101700.66
2022-10-29T01:35:58.327Z,101710.59
2022-10-29T01:37:07.181Z,101705.34
2022-10-29T01:38:20.835Z,101702.78
2022-10-29T01:39:35.741Z,101696.75
2022-10-29T01:40:44.343Z,101694.22
2022-10-29T01:41:53.936Z,101694.22
2022-10-29T01:43:05.106Z,101688.13
2022-10-29T01:44:17.312Z,101683.78
2022-10-29T01:45:24.415Z,101680.25
2022-10-29T01:46:34.147Z,101684.75
2022-10-29T01:47:41.592Z,101691.09
2022-10-29T01:48:46.158Z,101692.81
2022-10-29T01:49:52.528Z,101692.81
2022-10-29T01:50:58.823Z,101703.53
2022-10-29T01:52:04.264Z,101700.84
2022-10-29T01:53:06.772Z,101692.81
2022-10-29T01:54:12.057Z,101691.94
2022-10-29T01:55:16.563Z,101698.19
2022-10-29T01:56:19.268Z,101691.94
2022-10-29T01:57:30.439Z,101686.47
2022-10-29T01:58:34.293Z,101689.16
2022-10-29T01:59:51.017Z,101683.78
2022-10-29T02:01:03.237Z,101689.16
2022-10-29T02:02:15.751Z,101689.16
2022-10-29T02:03:30.955Z,101689.16
2022-10-29T02:04:47.666Z,101682.06
2022-10-29T02:05:58.154Z,101686.47
2022-10-29T02:07:04.016Z,101678.41
2022-10-29T02:08:18.952Z,101676.72
2022-10-29T02:09:26.889Z,101678.66
2022-10-29T02:10:34.501Z,101675.00
2022-10-29T02:11:48.852Z,101672.47
2022-10-29T02:12:53.862Z,101674.31
2022-10-29T02:14:02.329Z,101669.94
2022-10-29T02:15:09.120Z,101671.94
2022-10-29T02:16:11.989Z,101670.22
2022-10-29T02:17:15.826Z,101670.34
2022-10-29T02:18:17.740Z,101665.16
2022-10-29T02:19:20.469Z,101672.34
2022-10-29T02:20:22.026Z,101672.50
2022-10-29T02:21:24.654Z,101667.16
2022-10-29T02:22:26.160Z,101663.75
2022-10-29T02:23:28.977Z,101670.09
2022-10-29T02:24:30.501Z,101671.09
2022-10-29T02:25:33.103Z,101661.34
2022-10-29T02:26:34.658Z,101658.81
2022-10-29T02:27:37.194Z,101653.59
2022-10-29T02:28:38.931Z,101650.22
2022-10-29T02:29:41.462Z,101658.38
2022-10-29T02:30:42.951Z,101655.03
2022-10-29T02:31:45.498Z,101648.81
2022-10-29T02:32:48.377Z,101652.47
2022-10-29T02:33:50.957Z,101652.75
2022-10-29T02:34:52.508Z,101653.72
2022-10-29T02:35:54.984Z,101657.44
2022-10-29T02:36:56.498Z,101654.03
2022-10-29T02:37:59.000Z,101662.06
2022-10-29T02:39:00.807Z,101655.84
2022-10-29T02:40:06.676Z,101652.34
2022-10-29T02:41:09.166Z,101656.00
2022-10-29T02:42:10.980Z,101657.00
2022-10-29T02:43:13.517Z,101651.63
2022-10-29T02:44:15.090Z,101650.78
2022-10-29T02:45:17.747Z,101645.41
2022-10-29T02:46:28.456Z,101642.91
2022-10-29T02:47:30.942Z,101647.41
2022-10-29T02:48:33.803Z,101644.84
2022-10-29T02:49:36.533Z,101639.50
2022-10-29T02:50:38.047Z,101645.88
2022-10-29T02:51:40.545Z,101641.47
2022-10-29T02:52:42.068Z,101645.13
2022-10-29T02:53:45.323Z,101638.09
2022-10-29T02:54:46.892Z,101633.72
2022-10-29T02:55:49.348Z,101636.41
2022-10-29T02:56:50.849Z,101643.59
2022-10-29T02:57:53.584Z,101638.41
2022-10-29T02:58:55.454Z,101641.91
2022-10-29T02:59:57.978Z,101641.06
2022-10-29T03:00:59.533Z,101647.25
2022-10-29T03:02:02.212Z,101645.44
2022-10-29T03:03:04.096Z,101656.16
2022-10-29T03:04:08.002Z,101658.72
2022-10-29T03:05:10.331Z,101648.97
2022-10-29T03:06:13.904Z,101651.63
2022-10-29T03:07:15.402Z,101648.97
2022-10-29T03:08:18.091Z,101651.63
2022-10-29T03:09:19.648Z,101646.16
2022-10-29T03:10:22.164Z,101647.00
2022-10-29T03:11:23.774Z,101648.84
2022-10-29T03:12:26.258Z,101646.00
2022-10-29T03:13:27.855Z,101643.31
2022-10-29T03:14:30.388Z,101647.69
2022-10-29T03:15:31.911Z,101641.47
2022-10-29T03:16:34.537Z,101643.19
2022-10-29T03:17:36.023Z,101639.50
2022-10-29T03:18:38.743Z,101633.31
2022-10-29T03:19:41.623Z,101632.47
2022-10-29T03:20:45.341Z,101627.09
2022-10-29T03:21:46.866Z,101634.13
2022-10-29T03:22:49.378Z,101629.63
2022-10-29T03:23:50.919Z,101630.47
2022-10-29T03:24:53.406Z,101628.63
2022-10-29T03:25:56.558Z,101626.81
2022-10-29T03:26:59.068Z,101623.41
2022-10-29T03:28:00.662Z,101625.09
2022-10-29T03:29:03.520Z,101625.97
2022-10-29T03:30:06.244Z,101622.28
2022-10-29T03:31:09.088Z,101621.44
2022-10-29T03:32:19.786Z,101622.41
2022-10-29T03:33:22.491Z,101619.75
2022-10-29T03:34:23.992Z,101620.59
2022-10-29T03:35:27.897Z,101616.94
2022-10-29T03:36:30.537Z,101620.47
2022-10-29T03:37:32.022Z,101616.09
2022-10-29T03:38:35.030Z,101626.81
2022-10-29T03:39:36.547Z,101618.75
2022-10-29T03:40:39.049Z,101616.78
2022-10-29T03:41:41.571Z,101616.78
2022-10-29T03:42:43.081Z,101617.78
2022-10-29T03:43:45.629Z,101610.44
2022-10-29T03:44:47.226Z,101617.50
2022-10-29T03:45:52.809Z,101622.84
2022-10-29T03:46:54.386Z,101628.34
2022-10-29T03:47:57.579Z,101621.16
2022-10-29T03:48:59.575Z,101618.47
2022-10-29T03:50:02.149Z,101606.78
2022-10-29T03:51:06.692Z,101607.59
2022-10-29T03:52:09.285Z,101596.03
2022-10-29T03:53:11.078Z,101590.69
2022-10-29T03:54:13.547Z,101589.97
2022-10-29T03:55:15.290Z,101591.78
2022-10-29T03:56:17.792Z,101593.66
2022-10-29T03:57:19.387Z,101597.31
2022-10-29T03:58:22.859Z,101590.13
2022-10-29T03:59:24.771Z,101598.00
2022-10-29T04:00:27.261Z,101601.69
2022-10-29T04:01:28.869Z,101603.53
2022-10-29T04:02:31.802Z,101605.34
2022-10-29T04:03:35.421Z,101601.69
2022-10-29T04:04:37.851Z,101600.84
2022-10-29T04:05:39.340Z,101601.81
2022-10-29T04:06:43.324Z,101594.63
2022-10-29T04:07:44.845Z,101597.31
2022-10-29T04:08:47.369Z,101597.31
2022-10-29T04:09:48.934Z,101610.72
2022-10-29T04:10:52.144Z,101612.69
2022-10-29T04:11:53.854Z,101614.38
2022-10-29T04:12:56.795Z,101610.00
2022-10-29T04:13:58.568Z,101611.00
2022-10-29T04:15:01.127Z,101614.66
2022-10-29T04:16:02.904Z,101621.72
2022-10-29T04:17:05.407Z,101619.91
2022-10-29T04:18:09.901Z,101627.09
2022-10-29T04:19:12.377Z,101625.25
2022-10-29T04:20:31.608Z,101615.34
2022-10-29T04:28:17.521Z,101608.63
2022-10-29T04:28:44.359Z,101603.38
2022-10-29T04:29:46.023Z,101599.84
2022-10-29T04:30:51.685Z,101590.69
2022-10-29T04:31:53.214Z,101591.69
2022-10-29T04:32:58.322Z,101589.69
2022-10-29T04:34:01.006Z,101594.19
2022-10-29T04:35:03.639Z,101586.16
2022-10-29T04:36:05.925Z,101583.34
2022-10-29T04:37:08.440Z,101583.34
2022-10-29T04:38:12.334Z,101594.06
2022-10-29T04:39:18.208Z,101583.34
2022-10-29T04:40:22.918Z,101582.50
2022-10-29T04:41:25.553Z,101579.81
2022-10-29T04:42:27.102Z,101584.19
2022-10-29T04:43:30.197Z,101579.81
2022-10-29T04:44:31.706Z,101579.81
2022-10-29T04:45:34.455Z,101584.31
2022-10-29T04:46:36.246Z,101591.53
2022-10-29T04:47:38.706Z,101580.78
2022-10-29T04:48:40.369Z,101576.44
2022-10-29T04:49:42.901Z,101574.63
2022-10-29T04:50:44.574Z,101565.72
2022-10-29T04:51:47.108Z,101551.47
2022-10-29T04:52:48.649Z,101546.94
2022-10-29T04:53:53.190Z,101541.59
2022-10-29T04:54:54.738Z,101545.13
2022-10-29T04:56:01.194Z,101536.06
2022-10-29T04:57:02.740Z,101543.25
2022-10-29T04:58:05.471Z,101534.25
2022-10-29T04:59:07.050Z,101543.97
2022-10-29T05:00:16.218Z,101542.97
2022-10-29T05:01:21.280Z,101536.78
2022-10-29T05:02:23.941Z,101547.50
2022-10-29T05:03:25.474Z,101546.66
2022-10-29T05:04:29.373Z,101553.69
2022-10-29T05:05:30.884Z,101558.25
2022-10-29T05:06:33.402Z,101563.59
2022-10-29T05:07:37.597Z,101563.59
2022-10-29T05:08:40.117Z,101561.03
2022-10-29T05:09:42.922Z,101567.25
2022-10-29T05:10:45.428Z,101569.09
2022-10-29T05:11:47.102Z,101571.94
2022-10-29T05:12:49.596Z,101565.72
2022-10-29T05:13:51.166Z,101565.00
2022-10-29T05:14:53.663Z,101563.34
2022-10-29T05:15:55.444Z,101563.34
2022-10-29T05:16:57.975Z,101558.25
2022-10-29T05:17:59.955Z,101554.81
2022-10-29T05:19:02.715Z,101558.50
2022-10-29T05:20:05.292Z,101560.34
2022-10-29T05:21:07.746Z,101555.97
2022-10-29T05:22:09.597Z,101561.47
2022-10-29T05:23:12.985Z,101556.09
2022-10-29T05:24:15.024Z,101556.09
2022-10-29T05:25:18.875Z,101546.38
2022-10-29T05:26:20.435Z,101544.56
2022-10-29T05:27:22.962Z,101550.59
2022-10-29T05:28:24.543Z,101544.41
2022-10-29T05:29:27.025Z,101543.41
2022-10-29T05:30:28.596Z,101546.94
2022-10-29T05:31:31.269Z,101546.78
2022-10-29T05:32:32.958Z,101551.19
2022-10-29T05:33:35.535Z,101546.69
2022-10-29T05:34:39.509Z,101545.84
2022-10-29T05:35:45.148Z,101544.97
2022-10-29T05:36:46.648Z,101545.84
2022-10-29T05:37:52.692Z,101545.84
2022-10-29T05:38:54.233Z,101551.19
2022-10-29T05:39:56.704Z,101555.72
2022-10-29T05:41:01.004Z,101557.50
2022-10-29T05:42:02.518Z,101555.59
2022-10-29T05:43:05.313Z,101551.19
2022-10-29T05:44:07.207Z,101569.81
2022-10-29T05:45:10.984Z,101559.94
2022-10-29T05:46:13.559Z,101553.72
2022-10-29T05:47:15.076Z,101549.22
2022-10-29T05:48:17.639Z,101550.06
2022-10-29T05:49:19.212Z,101546.22
2022-10-29T05:50:21.995Z,101546.94
2022-10-29T05:51:24.564Z,101551.47
2022-10-29T05:52:26.068Z,101553.00
2022-10-29T05:53:28.621Z,101544.97
2022-10-29T05:54:30.179Z,101542.28
2022-10-29T05:55:35.262Z,101553.00
2022-10-29T05:56:38.106Z,101550.31
2022-10-29T05:57:40.581Z,101541.31
2022-10-29T05:58:43.070Z,101538.63
2022-10-29T05:59:44.570Z,101533.25
2022-10-29T06:00:47.145Z,101539.59
2022-10-29T06:01:48.780Z,101542.28
2022-10-29T06:02:51.483Z,101535.22
2022-10-29T06:03:54.022Z,101530.88
2022-10-29T06:04:55.515Z,101530.88
2022-10-29T06:05:57.984Z,101534.41
2022-10-29T06:07:00.804Z,101541.59
2022-10-29T06:08:03.265Z,101537.09
2022-10-29T06:09:04.957Z,101534.41
2022-10-29T06:10:08.710Z,101526.34
2022-10-29T06:11:10.226Z,101521.81
2022-10-29T06:12:14.083Z,101530.72
2022-10-29T06:13:17.964Z,101526.19
2022-10-29T06:14:20.514Z,101537.78
2022-10-29T06:15:22.823Z,101535.94
2022-10-29T06:16:25.354Z,101535.94
2022-10-29T06:17:27.348Z,101534.94
2022-10-29T06:18:30.529Z,101532.13
2022-10-29T06:19:32.277Z,101533.94
2022-10-29T06:20:34.804Z,101533.94
2022-10-29T06:21:37.337Z,101528.44
2022-10-29T06:22:39.073Z,101529.31
2022-10-29T06:23:41.895Z,101526.63
2022-10-29T06:24:43.397Z,101531.97
2022-10-29T06:25:45.869Z,101523.78
2022-10-29T06:26:47.413Z,101524.63
2022-10-29T06:27:58.701Z,101518.41
2022-10-29T06:29:01.559Z,101513.06
2022-10-29T06:30:03.863Z,101520.97
2022-10-29T06:31:06.587Z,101520.97
2022-10-29T06:32:08.071Z,101519.25
2022-10-29T06:33:10.595Z,101520.97
2022-10-29T06:34:13.437Z,101527.16
2022-10-29T06:35:16.025Z,101529.81
2022-10-29T06:36:17.588Z,101534.38
2022-10-29T06:37:33.119Z,101526.31
2022-10-29T06:38:34.684Z,101530.00
2022-10-29T06:39:37.220Z,101522.78
2022-10-29T06:40:38.959Z,101526.31
2022-10-29T06:41:41.547Z,101532.50
2022-10-29T06:42:43.262Z,101528.16
2022-10-29T06:43:47.192Z,101533.34
2022-10-29T06:44:48.669Z,101529.81
2022-10-29T06:45:51.209Z,101534.22
2022-10-29T06:46:52.830Z,101526.16
2022-10-29T06:47:55.844Z,101528.00
2022-10-29T06:48:58.594Z,101524.34
2022-10-29T06:50:00.153Z,101523.34
2022-10-29T06:51:02.600Z,101534.94
2022-10-29T06:52:04.544Z,101526.88
2022-10-29T06:53:08.719Z,101533.06
2022-10-29T06:54:10.263Z,101528.56
2022-10-29T06:55:12.710Z,101528.56
2022-10-29T06:56:14.208Z,101528.41
2022-10-29T06:57:16.702Z,101525.72
2022-10-29T06:58:20.165Z,101537.31
2022-10-29T06:59:24.423Z,101535.44
2022-10-29T07:00:26.183Z,101533.63
2022-10-29T07:01:31.746Z,101530.81
2022-10-29T07:02:34.143Z,101529.94
2022-10-29T07:03:36.874Z,101540.56
2022-10-29T07:04:38.360Z,101541.38
2022-10-29T07:05:40.889Z,101534.16
2022-10-29T07:06:42.475Z,101544.91
2022-10-29T07:07:44.982Z,101537.56
2022-10-29T07:08:46.591Z,101537.56
2022-10-29T07:09:49.047Z,101533.88
2022-10-29T07:10:51.052Z,101532.75
2022-10-29T07:11:53.705Z,101531.06
2022-10-29T07:12:55.667Z,101529.91
2022-10-29T07:13:58.595Z,101524.56
2022-10-29T07:15:01.503Z,101536.97
2022-10-29T07:16:04.153Z,101532.47
2022-10-29T07:17:06.009Z,101523.56
2022-10-29T07:18:09.645Z,101531.63
2022-10-29T07:19:12.133Z,101535.97
2022-10-29T07:20:13.873Z,101522.56
2022-10-29T07:21:16.530Z,101530.75
2022-10-29T07:22:18.026Z,101531.63
2022-10-29T07:23:20.801Z,101531.63
2022-10-29T07:24:22.399Z,101533.28
2022-10-29T07:25:25.281Z,101533.28
2022-10-29T07:26:27.738Z,101536.69
2022-10-29T07:27:29.321Z,101540.91
2022-10-29T07:28:32.023Z,101541.75
2022-10-29T07:29:33.796Z,101543.28
2022-10-29T07:30:37.912Z,101543.16
2022-10-29T07:31:39.501Z,101551.03
2022-10-29T07:32:42.141Z,101548.22
2022-10-29T07:33:43.719Z,101555.25
2022-10-29T07:34:46.213Z,101549.63
2022-10-29T07:35:50.430Z,101549.47
2022-10-29T07:36:52.914Z,101542.25
2022-10-29T07:37:59.770Z,101550.69
2022-10-29T07:39:04.915Z,101547.03
2022-10-29T07:40:07.997Z,101553.09
2022-10-29T07:41:10.727Z,101555.47
2022-10-29T07:42:12.243Z,101557.16
2022-10-29T07:43:14.748Z,101552.34
2022-10-29T07:44:16.882Z,101550.34
2022-10-29T07:45:19.423Z,101556.56
2022-10-29T07:46:22.253Z,101550.91
2022-10-29T07:47:24.850Z,101557.13
2022-10-29T07:48:26.398Z,101554.28
2022-10-29T07:49:28.827Z,101545.09
2022-10-29T07:50:31.482Z,101537.88
2022-10-29T07:51:34.009Z,101550.31
2022-10-29T07:52:35.584Z,101544.97
2022-10-29T07:53:38.058Z,101542.28
2022-10-29T07:54:39.565Z,101547.66
2022-10-29T07:55:42.383Z,101544.97
2022-10-29T07:56:46.844Z,101545.94
2022-10-29T07:57:58.837Z,101547.66
2022-10-29T07:59:00.543Z,101546.94
2022-10-29T08:00:03.389Z,101546.94
2022-10-29T08:01:07.234Z,101543.56
2022-10-29T08:02:11.859Z,101543.56
2022-10-29T08:03:13.976Z,101541.00
2022-10-29T08:04:16.515Z,101539.34
2022-10-29T08:05:18.077Z,101541.19
2022-10-29T08:06:20.895Z,101541.19
2022-10-29T08:07:22.448Z,101538.50
2022-10-29T08:08:25.465Z,101535.81
2022-10-29T08:09:27.112Z,101546.38
2022-10-29T08:10:30.777Z,101538.19
2022-10-29T08:11:33.194Z,101538.19
2022-10-29T08:12:35.723Z,101539.72
2022-10-29T08:13:37.263Z,101536.91
2022-10-29T08:14:39.785Z,101537.72
2022-10-29T08:15:41.306Z,101544.66
2022-10-29T08:16:43.803Z,101545.19
2022-10-29T08:17:47.249Z,101546.72
2022-10-29T08:18:49.810Z,101538.41
2022-10-29T08:19:51.347Z,101545.19
2022-10-29T08:20:53.802Z,101536.66
2022-10-29T08:21:55.514Z,101542.56
2022-10-29T08:23:01.267Z,101535.22
2022-10-29T08:24:03.345Z,101538.59
2022-10-29T08:25:06.544Z,101531.38
2022-10-29T08:26:09.036Z,101535.72
2022-10-29T08:27:10.564Z,101529.22
2022-10-29T08:28:14.989Z,101522.84
2022-10-29T08:29:16.688Z,101514.78
2022-10-29T08:30:19.283Z,101517.16
2022-10-29T08:31:20.896Z,101521.53
2022-10-29T08:32:23.399Z,101523.25
2022-10-29T08:33:27.655Z,101516.88
2022-10-29T08:34:29.182Z,101519.56
2022-10-29T08:35:31.746Z,101523.94
2022-10-29T08:36:33.371Z,101525.63
2022-10-29T08:37:35.939Z,101524.78
2022-10-29T08:38:37.486Z,101524.63
2022-10-29T08:39:39.994Z,101523.63
2022-10-29T08:40:56.127Z,101520.09
2022-10-29T08:42:11.004Z,101513.88
2022-10-29T08:43:47.617Z,101519.25
2022-10-29T08:45:11.771Z,101520.25
2022-10-29T08:46:19.258Z,101520.09
2022-10-29T08:47:24.106Z,101532.53
2022-10-29T08:48:37.589Z,101527.00
2022-10-29T08:49:47.266Z,101521.47
2022-10-29T08:50:53.383Z,101532.06
2022-10-29T08:52:01.117Z,101525.53
2022-10-29T08:53:22.386Z,101525.22
2022-10-29T08:54:31.502Z,101523.09
2022-10-29T08:55:36.322Z,101523.75
2022-10-29T08:56:41.151Z,101535.91
2022-10-29T08:57:56.415Z,101524.84
2022-10-29T08:59:03.419Z,101521.69
2022-10-29T09:01:21.604Z,101522.59
2022-10-29T09:02:24.337Z,101518.75
2022-10-29T09:03:28.658Z,101520.97
2022-10-29T09:04:37.252Z,101523.34
2022-10-29T09:05:49.642Z,101515.97
2022-10-29T09:07:16.359Z,101517.66
2022-10-29T09:08:32.038Z,101521.06
2022-10-29T09:09:39.181Z,101513.66
2022-10-29T09:10:48.094Z,101523.44
2022-10-29T09:12:04.987Z,101515.06
2022-10-29T09:13:23.615Z,101521.97
2022-10-29T09:14:43.910Z,101528.03
2022-10-29T09:16:01.331Z,101526.06
2022-10-29T09:17:15.770Z,101524.88
2022-10-29T09:18:33.477Z,101533.63
2022-10-29T09:19:50.245Z,101523.72
2022-10-29T09:20:59.002Z,101519.72
2022-10-29T09:22:13.223Z,101527.63
2022-10-29T09:23:25.532Z,101529.69
2022-10-29T09:24:34.963Z,101528.34
2022-10-29T09:25:46.639Z,101522.66
2022-10-29T09:26:58.641Z,101526.06
2022-10-29T09:28:17.707Z,101525.72
2022-10-29T09:29:34.433Z,101521.03
2022-10-29T09:30:43.985Z,101520.69
2022-10-29T09:31:49.916Z,101523.06
2022-10-29T09:32:59.960Z,101520.06
2022-10-29T09:34:05.965Z,101516.22
2022-10-29T09:35:14.718Z,101515.38
2022-10-29T09:36:18.446Z,101510.00
2022-10-29T09:37:25.728Z,101508.81
2022-10-29T09:38:32.723Z,101515.06
2022-10-29T09:39:39.922Z,101508.69
2022-10-29T09:40:42.960Z,101506.66
2022-10-29T09:41:45.940Z,101507.00
2022-10-29T09:42:48.086Z,101499.63
2022-10-29T09:43:56.909Z,101502.66
2022-10-29T09:45:02.591Z,101504.88
2022-10-29T09:46:12.174Z,101505.41
2022-10-29T09:47:25.450Z,101506.78
2022-10-29T09:48:33.801Z,101504.41
2022-10-29T09:49:49.911Z,101501.44
2022-10-29T09:51:02.685Z,101511.22
2022-10-29T09:52:09.955Z,101509.19
2022-10-29T09:53:12.588Z,101507.50
2022-10-29T09:54:14.223Z,101510.88
2022-10-29T09:55:22.213Z,101513.56
2022-10-29T09:56:23.822Z,101512.56
2022-10-29T09:57:29.294Z,101509.69
2022-10-29T09:58:30.841Z,101501.81
2022-10-29T09:59:37.628Z,101501.81
2022-10-29T10:00:40.167Z,101505.50
2022-10-29T10:01:41.790Z,101503.78
2022-10-29T10:02:46.640Z,101509.19
2022-10-29T10:03:55.059Z,101513.72
2022-10-29T10:05:01.849Z,101505.81
2022-10-29T10:06:08.010Z,101509.66
2022-10-29T10:07:11.721Z,101509.81
2022-10-29T10:08:15.409Z,101512.69
2022-10-29T10:09:16.927Z,101507.59
2022-10-29T10:10:23.872Z,101506.78
2022-10-29T10:11:31.036Z,101505.06
2022-10-29T10:12:46.750Z,101500.88
2022-10-29T10:13:53.717Z,101502.00
2022-10-29T10:15:16.976Z,101502.34
2022-10-29T10:16:25.233Z,101502.34
2022-10-29T10:17:26.798Z,101501.66
2022-10-29T10:18:41.594Z,101498.97
2022-10-29T10:19:45.570Z,101491.91
2022-10-29T10:21:03.114Z,101496.28
2022-10-29T10:22:16.447Z,101489.06
2022-10-29T10:23:27.302Z,101489.06
2022-10-29T10:24:31.532Z,101495.28
2022-10-29T10:25:36.731Z,101493.59
2022-10-29T10:26:43.006Z,101495.28
2022-10-29T10:27:44.582Z,101499.66
2022-10-29T10:29:03.959Z,101498.66
2022-10-29T10:30:15.762Z,101500.34
2022-10-29T10:31:18.294Z,101493.78
2022-10-29T10:32:19.810Z,101497.00
2022-10-29T10:33:27.022Z,101493.97
2022-10-29T10:34:38.866Z,101482.03
2022-10-29T10:35:41.129Z,101476.66
2022-10-29T10:36:45.531Z,101474.66
2022-10-29T10:37:48.535Z,101471.81
2022-10-29T10:38:54.009Z,101474.34
2022-10-29T10:40:00.489Z,101476.88
2022-10-29T10:41:08.258Z,101471.16
2022-10-29T10:42:17.055Z,101475.41
2022-10-29T10:43:23.067Z,101463.25
2022-10-29T10:44:25.929Z,101464.81
2022-10-29T10:45:34.443Z,101469.84
2022-10-29T10:46:41.718Z,101469.53
2022-10-29T10:47:47.894Z,101473.72
2022-10-29T10:48:59.494Z,101476.94
2022-10-29T10:50:11.894Z,101469.53
2022-10-29T10:51:25.178Z,101476.13
2022-10-29T10:52:32.191Z,101476.59
2022-10-29T10:53:35.371Z,101480.66
2022-10-29T10:54:41.852Z,101473.09
2022-10-29T10:55:47.963Z,101478.97
2022-10-29T10:56:58.508Z,101469.91
2022-10-29T10:58:11.259Z,101472.25
2022-10-29T10:59:16.347Z,101472.06
2022-10-29T11:00:20.791Z,101474.75
2022-10-29T11:01:28.276Z,101465.84
2022-10-29T11:02:40.219Z,101470.41
2022-10-29T11:03:45.342Z,101472.25
2022-10-29T11:04:50.881Z,101465.34
2022-10-29T11:05:59.485Z,101468.19
2022-10-29T11:07:07.087Z,101463.81
2022-10-29T11:08:17.626Z,101466.50
2022-10-29T11:09:25.380Z,101464.84
2022-10-29T11:10:34.990Z,101468.53
2022-10-29T11:11:40.336Z,101460.78
2022-10-29T11:12:46.430Z,101462.63
2022-10-29T11:13:50.286Z,101467.19
2022-10-29T11:14:58.364Z,101462.81
2022-10-29T11:16:08.210Z,101460.13
2022-10-29T11:17:25.994Z,101454.03
2022-10-29T11:18:34.663Z,101445.97
2022-10-29T11:19:42.988Z,101454.91
2022-10-29T11:20:51.014Z,101449.50
2022-10-29T11:22:03.814Z,101456.75
2022-10-29T11:23:24.547Z,101444.28
2022-10-29T11:24:37.814Z,101455.03
2022-10-29T11:25:43.676Z,101449.66
2022-10-29T11:26:49.798Z,101450.34
2022-10-29T11:27:56.969Z,101447.66
2022-10-29T11:29:05.596Z,101447.66
2022-10-29T11:30:12.082Z,101445.81
2022-10-29T11:31:23.994Z,101447.47
2022-10-29T11:32:33.367Z,101451.88
2022-10-29T11:33:44.448Z,101449.00
2022-10-29T11:34:54.485Z,101454.06
2022-10-29T11:36:02.656Z,101454.72
2022-10-29T11:37:14.923Z,101452.88
2022-10-29T11:38:21.013Z,101445.81
2022-10-29T11:39:32.550Z,101451.19
2022-10-29T11:40:41.402Z,101451.03
2022-10-29T11:41:51.202Z,101452.03
2022-10-29T11:42:53.853Z,101452.03
2022-10-29T11:43:55.527Z,101459.97
2022-10-29T11:44:59.968Z,101450.84
2022-10-29T11:46:08.780Z,101455.06
2022-10-29T11:47:28.035Z,101451.34
2022-10-29T11:48:46.169Z,101437.22
2022-10-29T11:50:05.409Z,101436.38
2022-10-29T11:51:19.895Z,101438.88
2022-10-29T11:52:35.528Z,101429.81
2022-10-29T11:53:56.695Z,101430.66
2022-10-29T11:55:16.206Z,101436.88
2022-10-29T11:56:30.753Z,101427.81
2022-10-29T11:57:40.472Z,101434.84
2022-10-29T11:58:49.287Z,101426.63
2022-10-29T12:00:05.646Z,101428.28
2022-10-29T12:01:20.376Z,101427.47
2022-10-29T12:02:35.227Z,101430.81
2022-10-29T12:03:54.545Z,101425.44
2022-10-29T12:05:01.967Z,101423.38
2022-10-29T12:06:16.447Z,101424.09
2022-10-29T12:07:30.831Z,101425.94
2022-10-29T12:08:48.851Z,101414.31
2022-10-29T12:10:13.393Z,101418.00
2022-10-29T12:11:26.011Z,101421.72
2022-10-29T12:12:35.882Z,101413.66
2022-10-29T12:13:55.222Z,101413.66
2022-10-29T12:15:03.049Z,101418.00
2022-10-29T12:16:21.239Z,101409.09
2022-10-29T12:17:32.601Z,101413.47
2022-10-29T12:18:44.348Z,101416.00
2022-10-29T12:19:55.634Z,101412.28
2022-10-29T12:21:06.026Z,101414.81
2022-10-29T12:22:21.823Z,101410.25
2022-10-29T12:23:34.778Z,101413.47
2022-10-29T12:24:50.086Z,101412.44
2022-10-29T12:26:02.479Z,101405.19
2022-10-29T12:27:14.362Z,101409.56
2022-10-29T12:28:23.997Z,101405.88
2022-10-29T12:29:33.842Z,101411.28
2022-10-29T12:30:43.459Z,101404.03
2022-10-29T12:31:55.834Z,101401.34
2022-10-29T12:33:05.654Z,101405.53
2022-10-29T12:34:17.476Z,101410.94
2022-10-29T12:35:28.989Z,101400.16
2022-10-29T12:36:38.957Z,101393.72
2022-10-29T12:37:47.300Z,101396.25